createdAt,value
2022-10-18T00:00:02.683Z,39.92
2022-10-18T00:02:29.470Z,41.75
2022-10-18T00:04:56.213Z,42.80
2022-10-18T00:07:22.879Z,42.53
2022-10-18T00:09:49.583Z,41.10
2022-10-18T00:12:16.346Z,40.22
2022-10-18T00:14:43.084Z,39.42
2022-10-18T00:17:09.960Z,35.80
2022-10-18T00:19:36.770Z,40.17
2022-10-18T00:22:03.537Z,44.55
2022-10-18T00:24:30.357Z,40.50
2022-10-18T00:26:57.043Z,43.08
2022-10-18T00:29:23.838Z,47.53
2022-10-18T00:31:50.605Z,39.28
2022-10-18T00:34:17.443Z,39.13
2022-10-18T00:36:45.012Z,31.10
2022-10-18T00:39:17.750Z,37.25
2022-10-18T00:41:45.070Z,31.83
2022-10-18T00:44:11.693Z,34.08
2022-10-18T00:46:41.611Z,37.50
2022-10-18T00:51:44.431Z,29.73
2022-10-18T00:54:15.131Z,29.17
2022-10-18T00:56:44.893Z,29.15
2022-10-18T00:59:13.893Z,31.48
2022-10-18T01:01:40.823Z,34.00
2022-10-18T01:04:07.764Z,36.15
2022-10-18T01:06:45.751Z,31.95
2022-10-18T01:09:28.737Z,33.53
2022-10-18T01:11:55.392Z,33.50
2022-10-18T01:14:57.720Z,31.05
2022-10-18T01:17:48.513Z,29.23
2022-10-18T01:20:44.145Z,32.38
2022-10-18T01:23:22.819Z,31.08
2022-10-18T01:26:14.228Z,31.35
2022-10-18T01:28:58.392Z,33.75
2022-10-18T01:31:38.034Z,32.17
2022-10-18T01:34:09.775Z,28.10
2022-10-18T01:36:40.767Z,30.40
2022-10-18T01:39:13.385Z,33.45
2022-10-18T01:41:42.614Z,29.33
2022-10-18T01:44:15.349Z,29.45
2022-10-18T01:46:43.133Z,36.90
2022-10-18T01:49:09.943Z,30.30
2022-10-18T01:51:36.650Z,30.00
2022-10-18T01:54:03.667Z,33.47
2022-10-18T01:56:52.137Z,34.78
2022-10-18T01:59:39.574Z,31.60
2022-10-18T02:02:27.520Z,33.45
2022-10-18T02:05:40.419Z,31.30
2022-10-18T02:08:33.290Z,31.70
2022-10-18T02:11:09.044Z,33.17
2022-10-18T02:13:38.604Z,32.10
2022-10-18T02:16:10.384Z,29.52
2022-10-18T02:18:41.867Z,34.10
2022-10-18T02:21:13.691Z,32.20
2022-10-18T02:23:40.614Z,32.97
2022-10-18T02:26:07.545Z,29.42
2022-10-18T02:28:34.667Z,30.83
2022-10-18T02:31:31.081Z,30.70
2022-10-18T02:34:03.974Z,31.83
2022-10-18T02:36:52.098Z,34.05
2022-10-18T02:39:23.532Z,31.40
2022-10-18T02:41:50.291Z,28.80
2022-10-18T02:44:17.294Z,32.28
2022-10-18T02:46:45.085Z,31.63
2022-10-18T02:49:11.798Z,33.35
2022-10-18T02:51:38.515Z,32.72
2022-10-18T02:54:05.622Z,28.65
2022-10-18T02:56:32.494Z,26.83
2022-10-18T02:58:59.251Z,27.75
2022-10-18T03:01:26.203Z,26.08
2022-10-18T03:03:53.295Z,28.25
2022-10-18T03:06:20.008Z,26.77
2022-10-18T03:08:46.782Z,26.55
2022-10-18T03:11:13.710Z,26.70
2022-10-18T03:13:40.466Z,25.88
2022-10-18T03:16:07.457Z,24.15
2022-10-18T03:18:34.285Z,28.00
2022-10-18T03:21:07.282Z,28.27
2022-10-18T03:23:34.732Z,28.15
2022-10-18T03:26:01.708Z,27.88
2022-10-18T03:28:28.585Z,27.15
2022-10-18T03:31:02.127Z,26.45
2022-10-18T03:33:30.026Z,25.15
2022-10-18T03:35:56.913Z,26.10
2022-10-18T03:38:24.043Z,24.02
2022-10-18T03:40:50.792Z,24.50
2022-10-18T03:43:17.566Z,25.52
2022-10-18T03:45:44.275Z,26.00
2022-10-18T03:48:11.051Z,24.75
2022-10-18T03:50:37.785Z,25.08
2022-10-18T03:53:04.821Z,27.02
2022-10-18T03:55:32.585Z,24.83
2022-10-18T03:57:59.405Z,25.00
2022-10-18T04:00:26.188Z,26.98
2022-10-18T04:02:55.822Z,24.20
2022-10-18T04:07:55.207Z,24.10
2022-10-18T04:10:22.146Z,21.80
2022-10-18T04:12:49.024Z,22.25
2022-10-18T04:15:15.865Z,20.92
2022-10-18T04:17:42.825Z,21.67
2022-10-18T04:20:10.023Z,26.33
2022-10-18T04:22:36.710Z,24.73
2022-10-18T04:25:03.750Z,24.33
2022-10-18T04:27:30.797Z,24.77
2022-10-18T04:29:57.795Z,24.80
2022-10-18T04:32:24.686Z,24.35
2022-10-18T04:34:51.541Z,23.95
2022-10-18T04:37:18.277Z,22.70
2022-10-18T04:39:51.171Z,25.10
2022-10-18T04:42:20.884Z,25.02
2022-10-18T04:44:47.933Z,25.38
2022-10-18T04:47:15.192Z,25.40
2022-10-18T04:49:42.185Z,26.30
2022-10-18T04:52:09.317Z,24.33
2022-10-18T04:54:36.462Z,23.55
2022-10-18T04:57:03.590Z,24.13
2022-10-18T04:59:30.661Z,23.85
2022-10-18T05:01:57.562Z,22.73
2022-10-18T05:04:24.441Z,19.83
2022-10-18T05:06:51.183Z,21.80
2022-10-18T05:09:18.046Z,21.50
2022-10-18T05:11:44.772Z,22.48
2022-10-18T05:14:11.555Z,21.17
2022-10-18T05:16:38.275Z,21.70
2022-10-18T05:19:05.979Z,23.13
2022-10-18T05:21:33.323Z,22.73
2022-10-18T05:24:00.122Z,21.42
2022-10-18T05:26:27.697Z,20.92
2022-10-18T05:28:54.544Z,20.52
2022-10-18T05:31:21.665Z,20.52
2022-10-18T05:33:48.444Z,18.83
2022-10-18T05:36:15.162Z,20.35
2022-10-18T05:38:43.106Z,20.73
2022-10-18T05:41:10.435Z,17.88
2022-10-18T05:43:37.460Z,19.33
2022-10-18T05:46:07.228Z,19.70
2022-10-18T05:48:36.159Z,18.77
2022-10-18T05:51:02.852Z,21.08
2022-10-18T05:53:37.160Z,20.48
2022-10-18T05:56:06.173Z,18.67
2022-10-18T05:58:33.115Z,20.70
2022-10-18T06:01:04.921Z,18.92
2022-10-18T06:03:32.363Z,20.60
2022-10-18T06:06:00.925Z,18.75
2022-10-18T06:08:28.176Z,18.80
2022-10-18T06:10:55.016Z,20.70
2022-10-18T06:13:21.736Z,19.55
2022-10-18T06:15:48.693Z,17.95
2022-10-18T06:18:15.524Z,16.90
2022-10-18T06:20:42.237Z,17.33
2022-10-18T06:23:08.977Z,18.92
2022-10-18T06:25:35.688Z,18.50
2022-10-18T06:28:07.823Z,21.17
2022-10-18T06:30:37.210Z,19.48
2022-10-18T06:33:04.335Z,21.02
2022-10-18T06:35:31.083Z,21.10
2022-10-18T06:37:57.912Z,19.20
2022-10-18T06:40:24.786Z,20.73
2022-10-18T06:43:00.257Z,21.73
2022-10-18T06:45:27.463Z,22.08
2022-10-18T06:47:54.224Z,19.25
2022-10-18T06:50:21.032Z,17.63
2022-10-18T06:52:49.061Z,20.83
2022-10-18T06:55:15.883Z,18.40
2022-10-18T06:57:42.672Z,18.08
2022-10-18T07:00:09.989Z,18.77
2022-10-18T07:02:37.956Z,19.13
2022-10-18T07:05:04.951Z,18.50
2022-10-18T07:07:32.076Z,17.70
2022-10-18T07:09:59.137Z,17.65
2022-10-18T07:12:25.893Z,21.92
2022-10-18T07:14:52.592Z,20.92
2022-10-18T07:17:19.313Z,19.42
2022-10-18T07:19:46.007Z,18.95
2022-10-18T07:22:13.032Z,16.85
2022-10-18T07:24:39.900Z,16.20
2022-10-18T07:27:09.749Z,19.05
2022-10-18T07:29:39.835Z,18.55
2022-10-18T07:32:09.294Z,17.33
2022-10-18T07:34:36.228Z,18.23
2022-10-18T07:37:02.952Z,21.75
2022-10-18T07:39:29.671Z,19.55
2022-10-18T07:41:56.507Z,19.35
2022-10-18T07:44:23.283Z,17.60
2022-10-18T07:46:49.932Z,17.05
2022-10-18T07:49:17.209Z,19.20
2022-10-18T07:51:43.959Z,17.20
2022-10-18T07:54:10.914Z,18.70
2022-10-18T07:56:37.771Z,19.30
2022-10-18T07:59:04.516Z,19.65
2022-10-18T08:01:31.327Z,19.98
2022-10-18T08:04:06.072Z,18.80
2022-10-18T08:06:34.427Z,22.95
2022-10-18T08:09:01.171Z,22.02
2022-10-18T08:11:27.972Z,22.42
2022-10-18T08:13:54.954Z,22.92
2022-10-18T08:16:26.919Z,20.73
2022-10-18T08:18:54.328Z,20.33
2022-10-18T08:21:21.854Z,21.70
2022-10-18T08:23:49.362Z,19.63
2022-10-18T08:26:20.911Z,23.13
2022-10-18T08:28:54.071Z,23.73
2022-10-18T08:31:31.173Z,22.45
2022-10-18T08:33:58.303Z,24.15
2022-10-18T08:36:25.252Z,23.52
2022-10-18T08:38:52.168Z,22.73
2022-10-18T08:41:49.284Z,20.92
2022-10-18T08:44:30.442Z,20.88
2022-10-18T08:47:12.171Z,24.60
2022-10-18T08:49:48.293Z,23.35
2022-10-18T08:52:46.166Z,25.25
2022-10-18T08:55:21.638Z,23.50
2022-10-18T08:57:49.592Z,21.80
2022-10-18T09:00:19.048Z,22.33
2022-10-18T09:03:05.257Z,23.52
2022-10-18T09:05:43.912Z,22.98
2022-10-18T09:08:18.930Z,22.95
2022-10-18T09:11:10.193Z,22.65
2022-10-18T09:14:04.852Z,22.23
2022-10-18T09:16:58.860Z,21.25
2022-10-18T09:19:38.382Z,21.33
2022-10-18T09:22:18.772Z,20.98
2022-10-18T09:24:54.645Z,21.33
2022-10-18T09:27:35.163Z,22.58
2022-10-18T09:30:23.297Z,22.27
2022-10-18T09:33:21.553Z,21.05
2022-10-18T09:36:00.223Z,22.30
2022-10-18T09:38:43.269Z,21.90
2022-10-18T09:41:34.966Z,23.15
2022-10-18T09:44:06.983Z,22.88
2022-10-18T09:46:38.958Z,20.98
2022-10-18T09:49:17.437Z,21.05
2022-10-18T09:51:48.080Z,21.35
2022-10-18T09:54:24.557Z,20.80
2022-10-18T09:56:57.685Z,20.13
2022-10-18T09:59:49.963Z,21.15
2022-10-18T10:02:19.327Z,19.25
2022-10-18T10:04:46.090Z,20.05
2022-10-18T10:07:16.795Z,19.55
2022-10-18T10:09:49.254Z,20.80
2022-10-18T10:12:33.912Z,19.77
2022-10-18T10:15:17.118Z,19.83
2022-10-18T10:17:44.296Z,19.65
2022-10-18T10:20:32.728Z,19.55
2022-10-18T10:23:25.229Z,20.73
2022-10-18T10:25:58.573Z,20.70
2022-10-18T10:28:31.614Z,18.98
2022-10-18T10:31:30.682Z,19.42
2022-10-18T10:34:20.404Z,19.42
2022-10-18T10:36:55.007Z,19.00
2022-10-18T10:39:24.471Z,19.40
2022-10-18T10:42:00.558Z,18.95
2022-10-18T10:44:31.093Z,17.42
2022-10-18T10:47:01.654Z,18.98
2022-10-18T10:49:41.202Z,19.13
2022-10-18T10:55:05.733Z,19.75
2022-10-18T10:57:38.886Z,19.48
2022-10-18T11:00:06.039Z,20.25
2022-10-18T11:02:35.536Z,21.25
2022-10-18T11:07:53.465Z,21.38
2022-10-18T11:10:23.893Z,23.05
2022-10-18T11:13:03.968Z,22.23
2022-10-18T11:15:39.223Z,23.50
2022-10-18T11:18:21.185Z,24.65
2022-10-18T11:20:54.100Z,23.25
2022-10-18T11:23:21.693Z,23.13
2022-10-18T11:26:27.289Z,24.63
2022-10-18T11:29:05.886Z,23.88
2022-10-18T11:32:10.664Z,22.35
2022-10-18T11:34:58.921Z,21.35
2022-10-18T11:37:51.083Z,21.65
2022-10-18T11:40:45.204Z,21.40
2022-10-18T11:44:00.657Z,21.60
2022-10-18T11:46:27.107Z,20.13
2022-10-18T11:48:53.796Z,20.52
2022-10-18T11:51:34.047Z,20.42
2022-10-18T11:54:32.573Z,19.08
2022-10-18T11:57:22.269Z,20.83
2022-10-18T12:00:05.978Z,19.30
2022-10-18T12:03:04.434Z,17.48
2022-10-18T12:05:35.352Z,17.67
2022-10-18T12:08:05.608Z,16.40
2022-10-18T12:10:46.098Z,16.35
2022-10-18T12:13:46.766Z,14.02
2022-10-18T12:16:14.565Z,14.52
2022-10-18T12:21:29.297Z,11.88
2022-10-18T12:24:18.716Z,11.40
2022-10-18T12:26:48.756Z,11.30
2022-10-18T12:29:15.424Z,10.35
2022-10-18T12:32:05.743Z,10.63
2022-10-18T12:34:43.899Z,10.20
2022-10-18T12:37:52.785Z,10.32
2022-10-18T12:40:31.448Z,10.30
2022-10-18T12:42:58.244Z,10.00
2022-10-18T12:45:30.314Z,9.30
2022-10-18T12:48:04.652Z,10.80
2022-10-18T12:51:05.963Z,10.27
2022-10-18T12:53:34.382Z,9.80
2022-10-18T12:56:34.250Z,10.27
2022-10-18T12:59:26.422Z,11.18
2022-10-18T13:01:54.157Z,10.15
2022-10-18T13:04:32.558Z,9.60
2022-10-18T13:07:05.151Z,10.05
2022-10-18T13:09:40.603Z,9.85
2022-10-18T13:12:10.126Z,9.65
2022-10-18T13:15:25.926Z,9.45
2022-10-18T13:18:08.289Z,9.80
2022-10-18T13:20:41.099Z,10.52
2022-10-18T13:23:30.074Z,8.82
2022-10-18T13:26:10.522Z,8.98
2022-10-18T13:28:48.080Z,8.80
2022-10-18T13:31:38.935Z,9.60
2022-10-18T13:34:26.368Z,8.40
2022-10-18T13:39:31.611Z,8.15
2022-10-18T13:41:58.318Z,7.68
2022-10-18T13:44:32.018Z,7.25
2022-10-18T13:46:58.674Z,6.82
2022-10-18T13:49:59.234Z,6.28
2022-10-18T13:52:38.217Z,6.35
2022-10-18T13:55:23.698Z,6.27
2022-10-18T13:58:04.576Z,5.82
2022-10-18T14:01:03.958Z,5.63
2022-10-18T14:04:01.590Z,5.72
2022-10-18T14:06:39.197Z,5.28
2022-10-18T14:09:25.977Z,6.25
2022-10-18T14:14:46.867Z,5.90
2022-10-18T14:17:25.255Z,6.25
2022-10-18T14:20:28.747Z,7.10
2022-10-18T14:23:16.130Z,6.45
2022-10-18T14:25:43.158Z,5.95
2022-10-18T14:28:58.491Z,6.78
2022-10-18T14:31:23.037Z,6.68
2022-10-18T14:33:57.574Z,6.25
2022-10-18T14:36:29.371Z,6.80
2022-10-18T14:39:01.601Z,6.28
2022-10-18T14:41:29.828Z,6.40
2022-10-18T14:44:14.744Z,6.13
2022-10-18T14:46:58.462Z,6.05
2022-10-18T14:49:25.685Z,6.35
2022-10-18T14:52:00.645Z,6.32
2022-10-18T14:54:34.235Z,6.72
2022-10-18T14:57:02.361Z,6.93
2022-10-18T14:59:45.511Z,7.32
2022-10-18T15:02:17.686Z,7.88
2022-10-18T15:04:46.494Z,7.50
2022-10-18T15:07:16.531Z,8.30
2022-10-18T15:09:44.012Z,7.75
2022-10-18T15:12:13.764Z,8.77
2022-10-18T15:17:15.922Z,8.30
2022-10-18T15:20:06.255Z,9.10
2022-10-18T15:22:34.149Z,8.05
2022-10-18T15:25:18.021Z,8.35
2022-10-18T15:27:50.910Z,7.82
2022-10-18T15:30:23.061Z,7.78
2022-10-18T15:32:52.864Z,8.20
2022-10-18T15:37:54.643Z,9.45
2022-10-18T15:40:24.228Z,9.00
2022-10-18T15:42:53.257Z,8.80
2022-10-18T15:45:31.652Z,9.35
2022-10-18T15:48:03.411Z,9.38
2022-10-18T15:50:41.350Z,8.95
2022-10-18T15:53:33.927Z,8.07
2022-10-18T15:56:08.161Z,8.80
2022-10-18T15:58:49.091Z,9.05
2022-10-18T16:01:23.273Z,8.77
2022-10-18T16:03:51.839Z,9.38
2022-10-18T16:06:18.985Z,8.73
2022-10-18T16:08:51.155Z,7.95
2022-10-18T16:11:23.779Z,8.45
2022-10-18T16:13:53.988Z,9.38
2022-10-18T16:16:25.428Z,9.30
2022-10-18T16:18:53.053Z,9.40
2022-10-18T16:21:20.700Z,10.75
2022-10-18T16:23:49.004Z,9.35
2022-10-18T16:26:16.941Z,10.40
2022-10-18T16:28:44.672Z,11.57
2022-10-18T16:31:26.594Z,11.27
2022-10-18T16:33:55.064Z,12.27
2022-10-18T16:36:29.156Z,11.15
2022-10-18T16:38:57.481Z,11.85
2022-10-18T16:41:24.832Z,11.93
2022-10-18T16:43:51.670Z,12.63
2022-10-18T16:46:27.633Z,13.35
2022-10-18T16:48:55.479Z,14.57
2022-10-18T16:51:22.762Z,13.98
2022-10-18T16:53:49.794Z,13.75
2022-10-18T16:56:34.210Z,13.88
2022-10-18T16:59:01.444Z,12.75
2022-10-18T17:01:31.358Z,14.32
2022-10-18T17:03:58.256Z,13.90
2022-10-18T17:06:31.080Z,13.38
2022-10-18T17:08:58.410Z,14.02
2022-10-18T17:11:27.800Z,13.63
2022-10-18T17:13:54.882Z,14.18
2022-10-18T17:16:24.229Z,13.55
2022-10-18T17:18:51.638Z,13.18
2022-10-18T17:21:19.186Z,13.20
2022-10-18T17:23:46.725Z,13.45
2022-10-18T17:26:30.682Z,14.13
2022-10-18T17:29:05.126Z,13.68
2022-10-18T17:31:34.337Z,13.75
2022-10-18T17:34:02.322Z,15.75
2022-10-18T17:36:34.307Z,13.95
2022-10-18T17:39:02.731Z,15.70
2022-10-18T17:41:30.477Z,15.07
2022-10-18T17:43:57.624Z,14.30
2022-10-18T17:46:25.810Z,14.48
2022-10-18T17:48:54.536Z,15.15
2022-10-18T17:51:23.499Z,16.55
2022-10-18T17:53:50.525Z,15.88
2022-10-18T17:56:18.258Z,16.13
2022-10-18T17:58:47.851Z,15.82
2022-10-18T18:01:17.556Z,15.45
2022-10-18T18:03:49.112Z,14.50
2022-10-18T18:06:16.802Z,16.45
2022-10-18T18:08:45.204Z,15.07
2022-10-18T18:11:14.451Z,15.60
2022-10-18T18:13:42.190Z,17.20
2022-10-18T18:16:21.856Z,16.23
2022-10-18T18:18:53.242Z,15.45
2022-10-18T18:21:22.733Z,15.98
2022-10-18T18:23:52.158Z,15.73
2022-10-18T18:26:21.373Z,14.57
2022-10-18T18:28:49.544Z,15.73
2022-10-18T18:31:19.926Z,15.65
2022-10-18T18:33:47.443Z,16.73
2022-10-18T18:36:14.908Z,53.55
2022-10-18T18:38:45.725Z,29.73
2022-10-18T18:41:16.395Z,25.25
2022-10-18T18:44:05.066Z,31.08
2022-10-18T18:46:37.545Z,32.00
2022-10-18T18:49:07.024Z,19.27
2022-10-18T18:51:41.946Z,16.63
2022-10-18T18:54:15.566Z,17.67
2022-10-18T18:56:46.567Z,15.93
2022-10-18T18:59:24.694Z,21.15
2022-10-18T19:01:56.189Z,19.40
2022-10-18T19:04:29.763Z,21.92
2022-10-18T19:06:59.963Z,18.52
2022-10-18T19:09:31.240Z,19.15
2022-10-18T19:11:58.802Z,19.23
2022-10-18T19:14:26.423Z,25.38
2022-10-18T19:16:57.819Z,26.10
2022-10-18T19:19:27.860Z,26.30
2022-10-18T19:22:00.806Z,20.40
2022-10-18T19:24:31.880Z,25.63
2022-10-18T19:27:02.435Z,18.73
2022-10-18T19:29:33.030Z,19.08
2022-10-18T19:32:02.844Z,19.25
2022-10-18T19:34:32.298Z,21.17
2022-10-18T19:37:00.119Z,19.02
2022-10-18T19:39:33.171Z,20.48
2022-10-18T19:42:03.684Z,19.73
2022-10-18T19:44:32.805Z,19.02
2022-10-18T19:47:00.637Z,23.48
2022-10-18T19:49:29.351Z,20.08
2022-10-18T19:51:58.059Z,22.00
2022-10-18T19:54:26.035Z,16.48
2022-10-18T19:56:53.722Z,24.80
2022-10-18T19:59:22.867Z,19.38
2022-10-18T20:01:50.055Z,19.30
2022-10-18T20:04:17.990Z,17.35
2022-10-18T20:06:45.581Z,17.98
2022-10-18T20:09:17.670Z,17.40
2022-10-18T20:11:47.791Z,17.73
2022-10-18T20:14:14.842Z,21.33
2022-10-18T20:16:41.680Z,17.52
2022-10-18T20:19:08.692Z,17.17
2022-10-18T20:21:36.641Z,18.95
2022-10-18T20:24:05.662Z,18.88
2022-10-18T20:26:33.651Z,19.20
2022-10-18T20:29:00.555Z,18.40
2022-10-18T20:31:30.520Z,18.65
2022-10-18T20:36:25.957Z,20.67
2022-10-18T20:38:53.512Z,18.67
2022-10-18T20:41:32.095Z,17.40
2022-10-18T20:44:01.411Z,17.83
2022-10-18T20:46:30.984Z,18.50
2022-10-18T20:48:58.043Z,20.70
2022-10-18T20:51:25.079Z,17.52
2022-10-18T20:53:53.604Z,17.50
2022-10-18T20:56:23.136Z,18.58
2022-10-18T20:58:52.049Z,19.17
2022-10-18T21:01:20.213Z,19.03
2022-10-18T21:03:49.510Z,16.60
2022-10-18T21:06:27.966Z,17.52
2022-10-18T21:08:56.781Z,17.05
2022-10-18T21:11:24.701Z,17.48
2022-10-18T21:13:58.702Z,16.50
2022-10-18T21:16:29.175Z,17.73
2022-10-18T21:18:56.080Z,18.38
2022-10-18T21:21:24.889Z,18.85
2022-10-18T21:23:52.364Z,18.73
2022-10-18T21:26:22.569Z,17.77
2022-10-18T21:28:58.610Z,16.50
2022-10-18T21:31:27.788Z,18.75
2022-10-18T21:33:57.325Z,17.23
2022-10-18T21:36:24.904Z,19.27
2022-10-18T21:38:52.294Z,18.85
2022-10-18T21:41:20.941Z,17.80
2022-10-18T21:43:50.343Z,17.73
2022-10-18T21:46:18.502Z,18.88
2022-10-18T21:48:47.836Z,17.10
2022-10-18T21:51:17.995Z,17.25
2022-10-18T21:53:46.961Z,17.75
2022-10-18T21:56:16.488Z,16.23
2022-10-18T21:58:44.493Z,16.15
2022-10-18T22:01:14.645Z,17.70
2022-10-18T22:03:42.180Z,16.88
2022-10-18T22:06:14.378Z,18.50
2022-10-18T22:08:42.090Z,17.90
2022-10-18T22:11:09.636Z,17.40
2022-10-18T22:13:36.374Z,18.65
2022-10-18T22:16:04.827Z,19.23
2022-10-18T22:18:32.670Z,18.17
2022-10-18T22:21:10.632Z,18.25
2022-10-18T22:23:43.336Z,19.27
2022-10-18T22:26:14.303Z,17.95
2022-10-18T22:28:42.213Z,18.10
2022-10-18T22:31:21.497Z,19.08
2022-10-18T22:33:59.501Z,18.55
2022-10-18T22:36:27.537Z,16.92
2022-10-18T22:38:54.374Z,17.20
2022-10-18T22:41:21.176Z,17.42
2022-10-18T22:43:50.654Z,17.92
2022-10-18T22:46:18.070Z,16.38
2022-10-18T22:48:45.033Z,16.13
2022-10-18T22:51:12.797Z,15.75
2022-10-18T22:53:40.691Z,18.67
2022-10-18T22:56:10.448Z,17.60
2022-10-18T22:58:37.232Z,17.42
2022-10-18T23:03:34.842Z,18.08
2022-10-18T23:06:02.442Z,19.85
2022-10-18T23:08:31.657Z,19.90
2022-10-18T23:11:00.004Z,18.90
2022-10-18T23:13:27.812Z,19.17
2022-10-18T23:16:04.383Z,19.30
2022-10-18T23:18:32.470Z,18.38
2022-10-18T23:21:13.730Z,18.67
2022-10-18T23:23:42.686Z,20.80
2022-10-18T23:26:12.771Z,18.27
2022-10-18T23:28:42.688Z,18.83
2022-10-18T23:31:18.203Z,18.55
2022-10-18T23:33:46.156Z,20.27
2022-10-18T23:36:13.175Z,19.02
2022-10-18T23:38:40.542Z,19.98
2022-10-18T23:41:09.061Z,17.38
2022-10-18T23:43:36.004Z,18.88
2022-10-18T23:46:03.242Z,17.83
2022-10-18T23:48:30.205Z,19.48
2022-10-18T23:50:56.951Z,18.42
2022-10-18T23:53:24.278Z,19.13
2022-10-18T23:55:56.751Z,17.23
2022-10-18T23:58:24.612Z,18.13
